Time;durP1;ratioP1;P1;durP2;ratioP2;P2;SDS_P1;SDS_P2;PMS_P1;PMS_P2;Temp;Humidity;BMP_temperature;BMP_pressure;BME280_temperature;BME280_humidity;BME280_pressure;Samples;Min_cycle;Max_cycle;Signal;HPM_P1;HPM_P2
2022/06/16 00:00:53;;;;;;;4.95;3.30;;;19.30;99.90;;;;;;4993623;28;20201;-54
2022/06/16 00:03:19;;;;;;;5.60;3.45;;;19.40;99.90;;;;;;4993773;28;20168;-53
2022/06/16 00:05:45;;;;;;;7.85;3.50;;;19.30;99.90;;;;;;4993377;28;20208;-54
2022/06/16 00:08:16;;;;;;;6.25;2.90;;;19.30;99.90;;;;;;4993902;28;20254;-54
2022/06/16 00:11:16;;;;;;;5.72;3.20;;;19.40;99.90;;;;;;4993447;28;20172;-54
2022/06/16 00:13:33;;;;;;;4.82;3.17;;;19.30;99.90;;;;;;4993432;28;20176;-54
2022/06/16 00:15:59;;;;;;;5.03;3.00;;;19.30;99.90;;;;;;4992767;28;20184;-54
2022/06/16 00:18:25;;;;;;;5.10;3.40;;;19.20;99.90;;;;;;4993390;28;20169;-54
2022/06/16 00:20:51;;;;;;;8.90;3.25;;;19.10;99.90;;;;;;4993734;28;20287;-54
2022/06/16 00:23:17;;;;;;;6.63;3.47;;;19.10;99.90;;;;;;4993430;28;20296;-54
2022/06/16 00:25:42;;;;;;;5.57;3.22;;;19.10;99.90;;;;;;4993271;28;20180;-55
2022/06/16 00:28:08;;;;;;;6.13;3.38;;;19.10;99.90;;;;;;4993343;28;20173;-54
2022/06/16 00:30:34;;;;;;;3.95;3.08;;;19.00;99.90;;;;;;4993124;28;20241;-54
2022/06/16 00:32:59;;;;;;;7.30;3.50;;;18.90;99.90;;;;;;4993419;28;20181;-54
2022/06/16 00:35:25;;;;;;;4.60;3.33;;;18.90;99.90;;;;;;4993119;28;20222;-54
2022/06/16 00:37:51;;;;;;;8.02;3.17;;;18.90;99.90;;;;;;4993462;28;20172;-54
2022/06/16 00:40:17;;;;;;;6.35;3.08;;;18.90;99.90;;;;;;4993020;28;20243;-54
2022/06/16 00:42:45;;;;;;;6.85;3.13;;;18.90;99.90;;;;;;4992825;28;20630;-54
2022/06/16 00:45:47;;;;;;;4.13;2.85;;;19.00;99.90;;;;;;4993058;28;20256;-54
2022/06/16 00:48:21;;;;;;;9.82;3.45;;;18.90;99.90;;;;;;4993206;28;20178;-54
2022/06/16 00:50:55;;;;;;;7.82;3.90;;;18.90;99.90;;;;;;4992802;28;20172;-53
2022/06/16 00:53:21;;;;;;;8.52;3.50;;;18.80;99.90;;;;;;4993148;28;20168;-54
2022/06/16 00:55:48;;;;;;;4.68;2.85;;;18.80;99.90;;;;;;4992702;28;20169;-54
2022/06/16 00:58:14;;;;;;;9.45;3.67;;;18.80;99.90;;;;;;4992787;28;20551;-54
2022/06/16 01:00:46;;;;;;;11.02;3.63;;;18.70;99.90;;;;;;4992552;28;20272;-54
2022/06/16 01:03:13;;;;;;;9.45;3.20;;;18.80;99.90;;;;;;4992571;28;20164;-54
2022/06/16 01:05:39;;;;;;;5.72;3.22;;;18.80;99.90;;;;;;4992592;28;20181;-54
2022/06/16 01:08:07;;;;;;;9.18;3.50;;;18.80;99.90;;;;;;4992589;28;20165;-54
2022/06/16 01:10:47;;;;;;;6.15;3.20;;;18.90;99.90;;;;;;4992707;28;20173;-54
2022/06/16 01:13:48;;;;;;;7.50;3.45;;;18.90;99.90;;;;;;4992435;28;20165;-54
2022/06/16 01:16:23;;;;;;;5.20;3.20;;;18.80;99.90;;;;;;4992328;28;20176;-53
2022/06/16 01:18:58;;;;;;;5.15;3.42;;;18.60;99.90;;;;;;4992537;28;20178;-54
2022/06/16 01:21:37;;;;;;;5.13;3.33;;;18.60;99.90;;;;;;4992250;28;20277;-54
2022/06/16 01:24:24;;;;;;;4.25;3.10;;;18.60;99.90;;;;;;4992290;28;20672;-54
2022/06/16 01:27:02;;;;;;;6.35;3.78;;;18.60;99.90;;;;;;4992202;28;20543;-53
2022/06/16 01:29:37;;;;;;;7.13;3.45;;;18.60;99.90;;;;;;4992106;28;20199;-54
2022/06/16 01:32:21;;;;;;;4.53;3.13;;;18.60;99.90;;;;;;4992208;28;20164;-54
2022/06/16 01:35:05;;;;;;;5.60;3.30;;;18.60;99.90;;;;;;4991948;28;20169;-54
2022/06/16 01:37:40;;;;;;;5.55;3.78;;;18.60;99.90;;;;;;4992073;28;20697;-54
2022/06/16 01:40:21;;;;;;;6.00;3.55;;;18.50;99.90;;;;;;4990474;28;20179;-54
2022/06/16 01:43:00;;;;;;;6.85;3.63;;;18.50;99.90;;;;;;4972654;28;20197;-54
2022/06/16 01:45:43;;;;;;;6.93;3.97;;;18.50;99.90;;;;;;4972385;28;20193;-54
2022/06/16 01:48:11;;;;;;;8.00;3.53;;;18.50;99.90;;;;;;4972438;28;20184;-54
2022/06/16 01:50:44;;;;;;;11.10;4.10;;;18.50;99.90;;;;;;4970923;28;20229;-55
2022/06/16 01:53:17;;;;;;;6.20;3.50;;;18.50;99.90;;;;;;4972250;28;20669;-54
2022/06/16 01:55:53;;;;;;;8.63;4.00;;;18.50;99.90;;;;;;4972322;28;20650;-54
2022/06/16 01:58:28;;;;;;;6.43;3.45;;;18.50;99.90;;;;;;4972532;28;20177;-54
2022/06/16 02:00:56;;;;;;;7.25;3.95;;;18.50;99.90;;;;;;4972217;28;20219;-54
2022/06/16 02:03:28;;;;;;;9.43;3.70;;;18.40;99.90;;;;;;4972452;28;20181;-54
2022/06/16 02:06:25;;;;;;;5.15;3.25;;;18.50;99.90;;;;;;4972269;28;20184;-54
2022/06/16 02:08:59;;;;;;;8.88;3.85;;;18.40;99.90;;;;;;4972544;28;20177;-54
2022/06/16 02:11:30;;;;;;;7.28;3.72;;;18.40;99.90;;;;;;4972145;28;20164;-54
2022/06/16 02:14:19;;;;;;;8.52;4.60;;;18.30;99.90;;;;;;4972016;28;20534;-54
2022/06/16 02:16:46;;;;;;;11.07;3.97;;;18.30;99.90;;;;;;4972397;28;20534;-54
2022/06/16 02:19:14;;;;;;;8.10;3.78;;;18.30;99.90;;;;;;4972152;28;20165;-54
2022/06/16 02:21:46;;;;;;;6.22;3.53;;;18.30;99.90;;;;;;4971816;28;20209;-54
2022/06/16 02:24:14;;;;;;;10.88;3.90;;;18.20;99.90;;;;;;4972267;28;20563;-54
2022/06/16 02:26:41;;;;;;;8.25;3.78;;;18.20;99.90;;;;;;4971918;28;20169;-54
2022/06/16 02:29:21;;;;;;;6.22;3.17;;;18.10;99.90;;;;;;4972086;28;20233;-54
2022/06/16 02:32:19;;;;;;;6.05;3.20;;;18.00;99.90;;;;;;4972216;28;20634;-54
2022/06/16 02:35:30;;;;;;;6.00;3.83;;;18.00;99.90;;;;;;4971775;28;20177;-54
2022/06/16 02:38:08;;;;;;;5.35;3.30;;;18.10;99.90;;;;;;4969917;28;20185;-54
2022/06/16 02:40:49;;;;;;;7.65;3.60;;;18.10;99.90;;;;;;4974645;28;20682;-53
2022/06/16 02:43:42;;;;;;;8.23;3.38;;;18.00;99.90;;;;;;4975804;28;20177;-54
2022/06/16 02:46:16;;;;;;;5.88;3.15;;;18.00;99.90;;;;;;4975623;28;20165;-54
2022/06/16 02:49:00;;;;;;;9.13;4.13;;;17.90;99.90;;;;;;4975564;28;20223;-54
2022/06/16 02:51:31;;;;;;;7.65;3.63;;;17.90;99.90;;;;;;4975597;28;20165;-55
2022/06/16 02:54:13;;;;;;;7.38;3.85;;;17.90;99.90;;;;;;4975525;28;20216;-53
2022/06/16 02:56:56;;;;;;;6.90;3.85;;;17.90;99.90;;;;;;4975430;28;20711;-54
2022/06/16 02:59:28;;;;;;;8.35;3.30;;;17.90;99.90;;;;;;4975546;28;20174;-54
2022/06/16 03:02:05;;;;;;;5.05;3.28;;;17.90;99.90;;;;;;4975405;28;20610;-54
2022/06/16 03:04:35;;;;;;;6.15;3.65;;;17.80;99.90;;;;;;4975355;28;20162;-54
2022/06/16 03:07:01;;;;;;;10.90;3.72;;;17.70;99.90;;;;;;4975310;28;20597;-54
2022/06/16 03:09:27;;;;;;;4.35;3.30;;;17.70;99.90;;;;;;4975284;28;20296;-54
2022/06/16 03:11:52;;;;;;;7.22;3.58;;;17.60;99.90;;;;;;4975300;28;20574;-54
2022/06/16 03:14:19;;;;;;;5.78;3.58;;;17.40;99.90;;;;;;4975581;28;20220;-54
2022/06/16 03:16:45;;;;;;;6.18;3.92;;;17.40;99.90;;;;;;4975404;28;20177;-54
2022/06/16 03:19:11;;;;;;;6.22;3.65;;;17.40;99.90;;;;;;4975094;28;20733;-54
2022/06/16 03:21:36;;;;;;;6.43;3.80;;;17.30;99.90;;;;;;4975016;28;20233;-54
2022/06/16 03:24:02;;;;;;;6.35;3.90;;;17.30;99.90;;;;;;4975058;28;20173;-54
2022/06/16 03:26:28;;;;;;;10.18;4.00;;;17.40;99.90;;;;;;4974905;28;20232;-54
2022/06/16 03:28:53;;;;;;;6.15;3.40;;;17.40;99.90;;;;;;4974965;28;20212;-54
2022/06/16 03:31:19;;;;;;;9.40;3.70;;;17.30;99.90;;;;;;4975387;28;20173;-54
2022/06/16 03:33:45;;;;;;;5.90;3.75;;;17.30;99.90;;;;;;4974846;28;20611;-54
2022/06/16 03:36:12;;;;;;;4.70;3.45;;;17.10;99.90;;;;;;4974878;28;20594;-54
2022/06/16 03:38:43;;;;;;;5.97;3.53;;;17.10;99.90;;;;;;4973592;28;20204;-54
2022/06/16 03:41:11;;;;;;;5.82;3.20;;;17.20;99.90;;;;;;4974705;28;20240;-54
2022/06/16 03:43:37;;;;;;;7.07;3.55;;;17.10;99.90;;;;;;4974663;28;20197;-54
2022/06/16 03:46:04;;;;;;;4.65;3.55;;;17.00;99.90;;;;;;4974742;28;20216;-54
2022/06/16 03:48:30;;;;;;;5.30;3.45;;;17.00;99.90;;;;;;4974518;28;20252;-54
2022/06/16 03:50:56;;;;;;;7.97;3.83;;;17.00;99.90;;;;;;4974490;28;20604;-54
2022/06/16 03:53:21;;;;;;;5.85;4.00;;;17.00;99.90;;;;;;4974579;28;20173;-54
2022/06/16 03:55:47;;;;;;;5.55;3.72;;;17.00;99.90;;;;;;4973452;28;20169;-54
2022/06/16 03:58:16;;;;;;;5.15;3.47;;;17.00;99.90;;;;;;4974449;28;20627;-54
2022/06/16 04:00:42;;;;;;;7.03;3.63;;;17.10;99.90;;;;;;4974188;28;20693;-54
2022/06/16 04:05:54;;;;;;;6.00;4.10;;;17.10;99.90;;;;;;4974257;28;20220;-54
2022/06/16 04:08:20;;;;;;;8.45;3.85;;;17.00;99.90;;;;;;4974405;28;20169;-54
2022/06/16 04:10:47;;;;;;;5.30;3.60;;;17.10;99.90;;;;;;4974449;28;20181;-54
2022/06/16 04:13:13;;;;;;;8.90;3.85;;;17.10;99.90;;;;;;4974279;28;20166;-54
2022/06/16 04:15:39;;;;;;;6.72;3.50;;;17.10;99.90;;;;;;4974009;28;20165;-55
2022/06/16 04:18:05;;;;;;;5.68;3.97;;;17.20;99.90;;;;;;4974197;28;20177;-54
2022/06/16 04:20:31;;;;;;;7.85;3.53;;;17.30;99.90;;;;;;4973805;28;20655;-55
2022/06/16 04:22:57;;;;;;;10.40;3.85;;;17.30;99.90;;;;;;4974134;28;20229;-54
2022/06/16 04:25:30;;;;;;;7.25;4.43;;;17.30;99.90;;;;;;4974032;28;20166;-54
2022/06/16 04:28:01;;;;;;;7.93;4.38;;;17.10;99.90;;;;;;4973822;28;20184;-54
2022/06/16 04:30:28;;;;;;;10.48;4.43;;;17.00;99.90;;;;;;4974020;28;20589;-54
2022/06/16 04:32:53;;;;;;;11.05;4.03;;;17.10;99.90;;;;;;4973775;28;20172;-54
2022/06/16 04:35:19;;;;;;;7.63;4.03;;;17.30;99.90;;;;;;4974157;28;20252;-54
2022/06/16 04:37:46;;;;;;;6.50;4.10;;;17.30;99.90;;;;;;4973632;28;20538;-55
2022/06/16 04:40:12;;;;;;;4.85;3.25;;;17.50;99.90;;;;;;4973474;28;20619;-54
2022/06/16 04:42:37;;;;;;;5.72;3.95;;;17.70;99.90;;;;;;4973694;28;20169;-54
2022/06/16 04:45:04;;;;;;;7.82;4.05;;;17.80;99.90;;;;;;4973446;28;20264;-54
2022/06/16 04:47:30;;;;;;;6.43;3.95;;;17.70;99.90;;;;;;4973752;28;20188;-54
2022/06/16 04:49:56;;;;;;;7.15;3.78;;;17.70;99.90;;;;;;4973445;28;20220;-54
2022/06/16 04:52:22;;;;;;;6.93;3.70;;;17.90;99.90;;;;;;4972045;28;20264;-54
2022/06/16 04:54:48;;;;;;;5.25;3.60;;;18.00;99.90;;;;;;4973671;28;20165;-54
2022/06/16 04:57:14;;;;;;;9.10;3.70;;;18.20;99.90;;;;;;4973337;28;20169;-54
2022/06/16 04:59:41;;;;;;;7.43;3.53;;;18.20;99.90;;;;;;4973440;28;20557;-54
2022/06/16 05:02:08;;;;;;;13.40;3.88;;;18.30;99.90;;;;;;4973144;28;20852;-55
2022/06/16 05:04:35;;;;;;;6.25;3.67;;;18.30;99.90;;;;;;4973565;28;20166;-54
2022/06/16 05:07:01;;;;;;;5.10;3.58;;;18.30;99.90;;;;;;4973325;28;20178;-54
2022/06/16 05:09:28;;;;;;;4.95;3.47;;;18.40;99.90;;;;;;4973270;28;20177;-54
2022/06/16 05:11:53;;;;;;;6.63;4.10;;;18.30;99.90;;;;;;4973466;28;20541;-54
2022/06/16 05:14:20;;;;;;;3.45;2.85;;;18.30;99.90;;;;;;4973277;28;20169;-54
2022/06/16 05:16:47;;;;;;;5.32;3.20;;;18.30;99.90;;;;;;4973419;28;20268;-55
2022/06/16 05:19:13;;;;;;;7.05;3.67;;;18.50;99.90;;;;;;4972925;28;20643;-55
2022/06/16 05:21:39;;;;;;;7.70;3.13;;;18.30;99.90;;;;;;4972659;28;20215;-54
2022/06/16 05:24:04;;;;;;;7.93;3.25;;;18.40;99.90;;;;;;4973012;28;20176;-55
2022/06/16 05:26:30;;;;;;;7.07;3.15;;;18.50;99.90;;;;;;4972820;28;20654;-55
2022/06/16 05:28:56;;;;;;;4.40;3.40;;;18.60;99.90;;;;;;4972431;28;20240;-54
2022/06/16 05:31:23;;;;;;;4.63;2.97;;;18.80;99.90;;;;;;4972273;28;20193;-54
2022/06/16 05:33:49;;;;;;;4.80;3.00;;;18.80;99.90;;;;;;4972967;28;20650;-54
2022/06/16 05:36:17;;;;;;;6.00;3.03;;;18.90;99.90;;;;;;4972778;28;20216;-54
2022/06/16 05:38:43;;;;;;;5.80;3.20;;;18.90;99.90;;;;;;4972704;28;20173;-55
2022/06/16 05:41:13;;;;;;;5.13;3.40;;;19.00;99.90;;;;;;4972477;28;20550;-54
2022/06/16 05:43:40;;;;;;;9.60;3.45;;;19.00;99.90;;;;;;4972438;28;20635;-54
2022/06/16 05:46:07;;;;;;;7.63;3.53;;;19.00;99.90;;;;;;4972671;28;20173;-54
2022/06/16 05:48:34;;;;;;;6.88;3.30;;;19.00;99.90;;;;;;4972129;28;20181;-54
2022/06/16 05:51:08;;;;;;;7.50;3.45;;;19.10;99.90;;;;;;4972551;28;20228;-54
2022/06/16 05:53:34;;;;;;;5.68;3.42;;;19.30;99.90;;;;;;4972263;28;20165;-54
2022/06/16 05:56:00;;;;;;;8.75;3.65;;;19.30;99.90;;;;;;4972371;28;20180;-55
2022/06/16 05:58:25;;;;;;;4.93;2.92;;;19.40;99.90;;;;;;4971984;28;20701;-54
2022/06/16 06:00:51;;;;;;;4.85;3.42;;;19.30;99.90;;;;;;4972143;28;20205;-54
2022/06/16 06:03:17;;;;;;;5.65;3.28;;;19.10;99.90;;;;;;4972186;28;20184;-54
2022/06/16 06:05:42;;;;;;;6.82;3.15;;;19.30;99.90;;;;;;4971883;28;20627;-54
2022/06/16 06:16:26;;;;;;;4.82;3.03;;;19.40;99.90;;;;;;4971586;28;20224;-55
2022/06/16 06:18:55;;;;;;;5.78;3.00;;;19.40;99.90;;;;;;4972047;28;20699;-55
2022/06/16 06:21:58;;;;;;;3.95;2.80;;;19.50;99.90;;;;;;4972004;28;20232;-54
2022/06/16 06:24:08;;;;;;;6.25;3.00;;;19.60;99.90;;;;;;4971797;28;20181;-54
2022/06/16 06:26:34;;;;;;;5.03;3.22;;;19.60;99.90;;;;;;4971795;28;20169;-55
2022/06/16 06:28:59;;;;;;;6.53;3.22;;;19.50;99.90;;;;;;4971870;28;20169;-54
2022/06/16 06:31:25;;;;;;;5.68;3.45;;;19.50;99.90;;;;;;4971873;28;20266;-54
2022/06/16 06:33:51;;;;;;;6.22;3.10;;;19.70;99.90;;;;;;4972095;28;20169;-54
2022/06/16 06:36:17;;;;;;;8.25;3.08;;;19.80;99.90;;;;;;4972035;28;20172;-55
2022/06/16 06:38:42;;;;;;;5.22;3.00;;;19.70;99.90;;;;;;4971891;28;20248;-55
2022/06/16 06:41:08;;;;;;;5.47;2.85;;;19.80;99.90;;;;;;4971852;28;20569;-54
2022/06/16 06:43:34;;;;;;;3.90;2.70;;;19.80;99.90;;;;;;4971883;28;20162;-54
2022/06/16 06:45:59;;;;;;;6.68;3.30;;;19.90;99.90;;;;;;4971783;28;20189;-55
2022/06/16 06:48:25;;;;;;;6.05;2.95;;;20.00;99.90;;;;;;4971358;28;20592;-55
2022/06/16 06:50:51;;;;;;;6.43;3.05;;;20.10;99.90;;;;;;4971706;28;20188;-54
2022/06/16 06:53:16;;;;;;;4.03;3.00;;;20.20;99.90;;;;;;4971962;28;20508;-54
2022/06/16 06:55:45;;;;;;;4.65;2.88;;;20.10;99.90;;;;;;4971708;28;20169;-54
2022/06/16 06:58:22;;;;;;;8.68;3.00;;;20.20;99.90;;;;;;4971632;28;20170;-55
2022/06/16 07:00:53;;;;;;;4.22;2.85;;;20.20;99.90;;;;;;4971445;28;20201;-54
2022/06/16 07:03:20;;;;;;;7.07;2.70;;;20.30;99.90;;;;;;4971970;28;20170;-54
2022/06/16 07:05:47;;;;;;;6.18;2.80;;;20.40;99.90;;;;;;4970266;28;20176;-55
2022/06/16 07:08:13;;;;;;;5.80;3.20;;;20.30;99.90;;;;;;4971430;28;20224;-54
2022/06/16 07:10:40;;;;;;;5.63;2.63;;;20.40;99.90;;;;;;4971469;28;20367;-54
2022/06/16 07:13:07;;;;;;;4.88;3.17;;;20.50;99.90;;;;;;4971305;28;20293;-55
2022/06/16 07:15:34;;;;;;;3.22;2.70;;;20.50;99.90;;;;;;4971409;28;20593;-54
2022/06/16 07:17:59;;;;;;;4.45;2.67;;;20.70;99.90;;;;;;4971392;28;20161;-55
2022/06/16 07:20:25;;;;;;;6.07;2.58;;;20.70;99.90;;;;;;4971637;28;20184;-55
2022/06/16 07:22:51;;;;;;;9.30;2.95;;;20.70;99.90;;;;;;4971525;28;20200;-55
2022/06/16 07:25:17;;;;;;;5.70;2.95;;;20.70;99.90;;;;;;4972198;28;20188;-54
2022/06/16 07:27:43;;;;;;;3.97;2.65;;;20.70;99.90;;;;;;4974968;28;20227;-55
2022/06/16 07:30:16;;;;;;;5.60;3.17;;;20.80;99.90;;;;;;4974630;28;20173;-55
2022/06/16 07:32:43;;;;;;;4.45;2.97;;;20.90;99.90;;;;;;4974827;28;20169;-55
2022/06/16 07:35:11;;;;;;;3.30;2.45;;;20.90;99.90;;;;;;4974805;28;20184;-55
2022/06/16 07:37:37;;;;;;;6.00;2.90;;;21.00;99.90;;;;;;4974711;28;20304;-55
2022/06/16 07:40:03;;;;;;;5.75;2.38;;;21.00;99.90;;;;;;4974803;28;20637;-55
2022/06/16 07:42:29;;;;;;;4.93;2.83;;;21.00;99.90;;;;;;4974228;28;20209;-55
2022/06/16 07:44:54;;;;;;;5.07;3.03;;;21.10;99.90;;;;;;4974601;28;20227;-55
2022/06/16 07:47:23;;;;;;;5.25;2.78;;;21.30;99.90;;;;;;4974642;28;20173;-55
2022/06/16 07:49:49;;;;;;;6.78;2.60;;;21.40;99.90;;;;;;4974711;28;20205;-55
2022/06/16 07:52:15;;;;;;;3.13;2.70;;;21.40;99.90;;;;;;4974330;28;20276;-55
2022/06/16 07:54:41;;;;;;;6.65;2.80;;;21.50;99.90;;;;;;4974485;28;20176;-54
2022/06/16 07:57:07;;;;;;;5.15;2.55;;;21.60;99.90;;;;;;4974615;28;20173;-55
2022/06/16 07:59:33;;;;;;;5.78;3.33;;;21.60;99.90;;;;;;4974380;28;20177;-55
2022/06/16 08:01:58;;;;;;;5.10;2.70;;;21.60;99.90;;;;;;4974325;28;20208;-54
2022/06/16 08:04:24;;;;;;;5.38;2.88;;;21.60;99.90;;;;;;4974260;28;20290;-55
2022/06/16 08:06:50;;;;;;;4.47;2.90;;;21.60;99.90;;;;;;4974272;28;20212;-55
2022/06/16 08:09:16;;;;;;;4.60;3.08;;;21.80;99.90;;;;;;4974479;28;20639;-54
2022/06/16 08:14:26;;;;;;;5.72;2.72;;;21.70;99.90;;;;;;4974032;28;20204;-55
2022/06/16 08:16:53;;;;;;;5.63;2.90;;;21.80;99.90;;;;;;4973938;28;20208;-55
2022/06/16 08:19:19;;;;;;;6.65;2.58;;;21.70;99.90;;;;;;4974443;28;20264;-55
2022/06/16 08:21:44;;;;;;;4.13;2.70;;;21.60;99.90;;;;;;4974106;28;20287;-55
2022/06/16 08:24:10;;;;;;;7.47;3.22;;;21.90;99.90;;;;;;4973968;28;20189;-55
2022/06/16 08:26:36;;;;;;;6.75;3.10;;;21.90;99.90;;;;;;4973923;28;20180;-55
2022/06/16 08:29:04;;;;;;;5.20;2.97;;;21.90;99.90;;;;;;4973819;28;20208;-55
2022/06/16 08:31:30;;;;;;;7.55;3.15;;;22.00;99.90;;;;;;4973928;28;20177;-55
2022/06/16 08:33:56;;;;;;;6.00;3.50;;;22.10;99.90;;;;;;4973592;28;20196;-55
2022/06/16 08:36:22;;;;;;;7.47;3.05;;;22.20;99.90;;;;;;4973469;28;20220;-55
2022/06/16 08:38:48;;;;;;;6.70;3.30;;;22.30;99.90;;;;;;4973515;28;20623;-55
2022/06/16 08:41:22;;;;;;;8.75;3.67;;;22.40;99.90;;;;;;4973738;28;20205;-55
2022/06/16 08:44:17;;;;;;;6.70;3.53;;;22.30;99.90;;;;;;4974176;28;20196;-55
2022/06/16 08:47:07;;;;;;;9.45;3.50;;;22.50;99.90;;;;;;4973523;28;20177;-55
2022/06/16 08:49:39;;;;;;;7.47;4.10;;;22.80;99.90;;;;;;4973234;28;20221;-54
2022/06/16 08:52:34;;;;;;;5.32;3.00;;;22.80;99.90;;;;;;4973343;28;20643;-55
2022/06/16 08:55:21;;;;;;;5.43;3.03;;;22.70;99.90;;;;;;4973316;28;20268;-55
2022/06/16 08:58:02;;;;;;;6.15;2.90;;;22.70;99.90;;;;;;4973141;28;20170;-55
2022/06/16 09:00:47;;;;;;;3.72;2.70;;;22.80;99.90;;;;;;4973201;28;20261;-55
2022/06/16 09:03:44;;;;;;;4.43;2.17;;;22.70;99.90;;;;;;4973194;28;20173;-55
2022/06/16 09:06:28;;;;;;;5.78;2.40;;;22.80;99.90;;;;;;4973154;28;20176;-54
2022/06/16 09:09:05;;;;;;;3.33;2.20;;;23.00;99.90;;;;;;4973058;28;20173;-55
2022/06/16 09:11:54;;;;;;;5.65;2.47;;;22.90;99.90;;;;;;4971619;28;20180;-55
2022/06/16 09:17:47;;;;;;;3.75;2.42;;;22.80;99.90;;;;;;4972955;28;20675;-55
2022/06/16 09:20:21;;;;;;;5.63;2.47;;;22.80;99.90;;;;;;4972673;28;20552;-55
2022/06/16 09:23:01;;;;;;;3.65;2.10;;;23.00;99.90;;;;;;4973180;28;20578;-55
2022/06/16 09:25:51;;;;;;;5.85;2.70;;;23.30;99.20;;;;;;4972921;28;20584;-55
2022/06/16 09:28:31;;;;;;;5.25;2.85;;;23.20;97.90;;;;;;4972921;28;20657;-55
2022/06/16 09:31:00;;;;;;;5.13;2.47;;;23.10;96.70;;;;;;4971557;28;20170;-55
2022/06/16 09:33:36;;;;;;;4.68;2.30;;;23.10;97.90;;;;;;4972633;28;20174;-55
2022/06/16 09:36:26;;;;;;;4.75;2.30;;;23.10;94.80;;;;;;4972581;28;20176;-55
2022/06/16 09:39:01;;;;;;;2.55;2.20;;;23.40;94.30;;;;;;4972647;28;20166;-55
2022/06/16 09:44:32;;;;;;;5.07;2.67;;;23.60;94.60;;;;;;4972260;28;20177;-55
2022/06/16 09:47:04;;;;;;;6.85;2.90;;;23.40;94.70;;;;;;4972386;28;20200;-55
2022/06/16 09:49:52;;;;;;;4.13;2.65;;;23.60;94.50;;;;;;4972169;28;20217;-54
2022/06/16 09:52:26;;;;;;;8.65;3.45;;;23.60;93.70;;;;;;4972498;28;20172;-55
2022/06/16 09:54:57;;;;;;;5.97;3.35;;;23.60;95.50;;;;;;4972425;28;20215;-54
2022/06/16 09:57:30;;;;;;;7.60;3.53;;;23.40;93.90;;;;;;4972369;28;20162;-54
2022/06/16 10:00:11;;;;;;;7.40;3.70;;;23.50;93.80;;;;;;4971900;28;20278;-55
2022/06/16 10:02:59;;;;;;;5.72;3.00;;;23.80;92.90;;;;;;4972198;28;20231;-55
2022/06/16 10:05:35;;;;;;;4.43;2.60;;;23.90;93.20;;;;;;4972034;28;21008;-55
2022/06/16 10:08:07;;;;;;;4.82;2.90;;;23.70;91.90;;;;;;4970762;28;20168;-54
2022/06/16 10:10:53;;;;;;;4.85;2.55;;;23.80;92.20;;;;;;4971386;28;20173;-54
2022/06/16 10:13:29;;;;;;;6.60;3.03;;;24.00;91.80;;;;;;4972088;28;20647;-54
2022/06/16 10:16:08;;;;;;;6.03;2.78;;;24.10;90.90;;;;;;4972123;28;20168;-55
2022/06/16 10:18:34;;;;;;;8.70;2.88;;;24.00;89.20;;;;;;4972068;28;20173;-55
2022/06/16 10:21:02;;;;;;;4.78;3.20;;;24.20;90.10;;;;;;4971619;28;20192;-55
2022/06/16 10:23:31;;;;;;;6.65;3.10;;;24.20;88.10;;;;;;4970716;28;20539;-55
2022/06/16 10:26:02;;;;;;;7.68;3.10;;;24.40;90.80;;;;;;4972022;28;20177;-55
2022/06/16 10:28:29;;;;;;;7.55;2.97;;;24.40;91.20;;;;;;4971750;28;20713;-55
2022/06/16 10:30:57;;;;;;;5.03;2.70;;;24.30;89.50;;;;;;4971678;28;20611;-55
2022/06/16 10:33:27;;;;;;;4.95;2.60;;;24.40;88.00;;;;;;4971864;28;20738;-55
2022/06/16 10:36:19;;;;;;;8.43;3.58;;;24.60;85.20;;;;;;4970342;28;20173;-55
2022/06/16 10:39:04;;;;;;;5.38;2.50;;;24.60;87.60;;;;;;4972214;28;20240;-55
2022/06/16 10:41:43;;;;;;;3.35;2.20;;;24.50;83.00;;;;;;4971542;28;20201;-55
2022/06/16 10:44:14;;;;;;;5.13;2.35;;;24.50;84.60;;;;;;4971694;28;20688;-55
2022/06/16 10:46:55;;;;;;;4.60;2.33;;;24.70;85.30;;;;;;4971983;28;20181;-55
2022/06/16 10:49:27;;;;;;;4.50;2.50;;;24.70;84.90;;;;;;4971246;28;20300;-56
2022/06/16 10:52:02;;;;;;;8.02;2.58;;;24.40;83.00;;;;;;4969569;28;20166;-55
2022/06/16 10:54:37;;;;;;;7.28;2.67;;;24.60;84.40;;;;;;4969629;28;20980;-56
2022/06/16 10:57:04;;;;;;;4.78;2.28;;;24.80;84.20;;;;;;4971036;28;20257;-55
2022/06/16 10:59:34;;;;;;;6.78;1.98;;;24.80;83.80;;;;;;4971509;28;20249;-55
2022/06/16 11:02:22;;;;;;;4.45;2.10;;;24.70;83.30;;;;;;4975361;28;20225;-55
2022/06/16 11:05:00;;;;;;;5.50;2.28;;;25.00;84.70;;;;;;4975565;28;20173;-55
2022/06/16 11:07:29;;;;;;;4.03;1.83;;;25.30;84.10;;;;;;4975362;28;20282;-55
2022/06/16 11:10:03;;;;;;;2.55;1.70;;;25.20;81.70;;;;;;4975679;28;20173;-55
2022/06/16 11:12:29;;;;;;;4.65;2.10;;;25.10;83.40;;;;;;4975066;28;20204;-55
2022/06/16 11:15:01;;;;;;;3.00;1.70;;;24.80;82.40;;;;;;4975341;28;20173;-55
2022/06/16 11:17:36;;;;;;;3.63;1.80;;;24.80;81.60;;;;;;4975124;28;20247;-55
2022/06/16 11:20:40;;;;;;;3.25;1.75;;;25.00;80.80;;;;;;4974116;28;20189;-55
2022/06/16 11:23:26;;;;;;;4.15;1.90;;;25.00;80.10;;;;;;4974894;28;20725;-52
2022/06/16 11:26:16;;;;;;;2.42;1.90;;;25.20;80.10;;;;;;4974658;28;20626;-52
2022/06/16 11:28:54;;;;;;;3.17;1.73;;;25.10;81.00;;;;;;4975013;28;20177;-53
2022/06/16 11:31:33;;;;;;;2.55;1.70;;;25.10;80.00;;;;;;4974834;28;20161;-54
2022/06/16 11:34:39;;;;;;;5.88;1.85;;;24.90;78.60;;;;;;4974379;28;20543;-54
2022/06/16 11:37:07;;;;;;;4.45;2.03;;;25.20;80.80;;;;;;4930454;29;20697;-53
2022/06/16 11:39:51;;;;;;;5.47;2.20;;;25.30;79.60;;;;;;4914819;29;20176;-53
2022/06/16 11:42:41;;;;;;;2.00;1.58;;;25.10;80.30;;;;;;4962041;28;20220;-53
2022/06/16 11:45:18;;;;;;;2.67;1.73;;;25.20;81.00;;;;;;4993843;28;20678;-53
2022/06/16 11:47:56;;;;;;;5.57;1.85;;;25.30;78.40;;;;;;4994077;28;20176;-53
2022/06/16 11:50:35;;;;;;;2.63;1.70;;;25.60;77.60;;;;;;4993371;28;20681;-54
2022/06/16 11:53:27;;;;;;;4.90;2.10;;;25.70;79.50;;;;;;4993816;28;20199;-53
2022/06/16 11:56:01;;;;;;;3.58;1.70;;;25.70;78.60;;;;;;4994075;28;20227;-55
2022/06/16 11:58:42;;;;;;;5.22;1.80;;;25.90;78.10;;;;;;4993355;28;20172;-54
2022/06/16 12:01:29;;;;;;;2.17;1.58;;;25.90;78.40;;;;;;4993244;28;20704;-54
2022/06/16 12:04:10;;;;;;;4.40;1.90;;;25.90;76.90;;;;;;4993679;28;20165;-55
2022/06/16 12:07:16;;;;;;;2.35;1.80;;;26.00;75.50;;;;;;4993829;28;20173;-55
2022/06/16 12:09:41;;;;;;;4.72;1.90;;;26.20;78.50;;;;;;4993892;28;20242;-55
2022/06/16 12:12:25;;;;;;;2.70;1.85;;;26.20;78.00;;;;;;4992629;28;20180;-55
2022/06/16 12:15:00;;;;;;;4.53;2.30;;;26.10;77.00;;;;;;4975709;28;20219;-55
2022/06/16 12:17:37;;;;;;;2.88;1.70;;;26.30;76.80;;;;;;4993318;28;20649;-55
2022/06/16 12:20:19;;;;;;;4.25;2.00;;;26.10;75.10;;;;;;4993506;28;20535;-55
2022/06/16 12:23:05;;;;;;;3.85;2.17;;;26.00;73.90;;;;;;4992622;28;20214;-55
2022/06/16 12:25:46;;;;;;;3.30;2.08;;;26.10;75.60;;;;;;4995802;28;21787;-54
2022/06/16 12:28:47;;;;;;;2.53;1.73;;;26.20;74.30;;;;;;4995057;28;20544;-55
2022/06/16 12:31:21;;;;;;;2.38;1.92;;;26.40;77.00;;;;;;4901112;29;20171;-55
2022/06/16 12:34:23;;;;;;;3.72;1.83;;;26.70;75.40;;;;;;4978379;28;20199;-55
2022/06/16 12:36:55;;;;;;;3.50;1.80;;;26.60;75.30;;;;;;4973603;28;20803;-55
2022/06/16 12:39:34;;;;;;;4.95;1.75;;;26.40;73.40;;;;;;5000270;28;20175;-55
2022/06/16 12:42:05;;;;;;;3.05;1.85;;;26.40;73.60;;;;;;5003165;28;20200;-54
2022/06/16 12:44:54;;;;;;;4.25;1.70;;;26.40;72.70;;;;;;4996834;28;20579;-55
2022/06/16 12:47:28;;;;;;;2.63;1.67;;;26.50;72.10;;;;;;4996720;28;20182;-55
2022/06/16 12:50:02;;;;;;;2.10;1.90;;;26.50;72.80;;;;;;4984045;28;20213;-55
2022/06/16 12:52:35;;;;;;;4.82;1.83;;;26.70;72.50;;;;;;4987635;28;20850;-55
2022/06/16 12:55:09;;;;;;;3.55;1.83;;;26.80;71.50;;;;;;4990547;28;20545;-55
2022/06/16 12:57:39;;;;;;;2.42;2.15;;;26.70;70.30;;;;;;4999755;28;20264;-55
2022/06/16 13:00:10;;;;;;;3.17;1.92;;;26.90;72.50;;;;;;5000641;28;20638;-55
2022/06/16 13:02:42;;;;;;;3.40;2.15;;;26.90;72.50;;;;;;5000184;28;20657;-55
2022/06/16 13:05:09;;;;;;;3.08;1.98;;;27.00;72.40;;;;;;4995986;28;20238;-55
2022/06/16 13:07:38;;;;;;;3.65;1.73;;;26.70;71.50;;;;;;4999816;28;20172;-54
2022/06/16 13:10:06;;;;;;;3.25;2.08;;;26.80;73.90;;;;;;4998446;28;20160;-55
2022/06/16 13:12:34;;;;;;;1.60;1.50;;;26.70;72.60;;;;;;5002467;28;20168;-55
2022/06/16 13:15:14;;;;;;;7.70;2.25;;;26.90;72.50;;;;;;4999451;28;20164;-54
2022/06/16 13:17:54;;;;;;;2.67;2.25;;;27.10;73.80;;;;;;5004081;28;20202;-55
2022/06/16 13:20:26;;;;;;;2.35;1.75;;;27.40;72.30;;;;;;4992135;28;20179;-55
2022/06/16 13:22:56;;;;;;;3.83;2.00;;;27.10;71.70;;;;;;5000283;28;20271;-55
2022/06/16 13:25:40;;;;;;;3.83;1.83;;;26.90;72.40;;;;;;4993248;28;20180;-54
2022/06/16 13:28:10;;;;;;;4.50;2.65;;;27.10;72.10;;;;;;4992447;28;20179;-55
2022/06/16 13:30:40;;;;;;;4.63;2.30;;;27.40;73.20;;;;;;4998103;28;20544;-55
2022/06/16 13:33:06;;;;;;;5.15;2.58;;;27.20;72.00;;;;;;4994450;28;20266;-54